createdAt,value
2018-05-12T00:00:34.234Z,19.88
2018-05-12T00:01:34.606Z,19.94
2018-05-12T00:02:34.528Z,19.92
2018-05-12T00:03:34.836Z,20.02
2018-05-12T00:04:34.874Z,19.98
2018-05-12T00:05:35.149Z,19.99
2018-05-12T00:06:35.197Z,19.99
2018-05-12T00:07:35.466Z,19.95
2018-05-12T00:08:35.515Z,19.92
2018-05-12T00:09:35.893Z,19.94
2018-05-12T00:10:35.811Z,19.95
2018-05-12T00:11:36.111Z,20.02
2018-05-12T00:12:36.160Z,20.02
2018-05-12T00:13:36.534Z,19.99
2018-05-12T00:14:36.461Z,19.92
2018-05-12T00:15:36.756Z,19.88
2018-05-12T00:16:36.800Z,19.95
2018-05-12T00:17:37.076Z,19.94
2018-05-12T00:18:37.125Z,19.94
2018-05-12T00:19:37.399Z,20.02
2018-05-12T00:20:37.450Z,19.94
2018-05-12T00:21:37.719Z,19.94
2018-05-12T00:22:37.788Z,19.83
2018-05-12T00:23:38.145Z,19.83
2018-05-12T00:24:38.061Z,19.83
2018-05-12T00:25:38.367Z,19.80
2018-05-12T00:26:38.424Z,19.77
2018-05-12T00:27:38.792Z,19.76
2018-05-12T00:28:38.714Z,19.77
2018-05-12T00:29:39.006Z,19.59
2018-05-12T00:30:39.058Z,19.50
2018-05-12T00:31:39.437Z,19.48
2018-05-12T00:32:39.437Z,19.54
2018-05-12T00:33:39.653Z,19.48
2018-05-12T00:34:39.710Z,19.54
2018-05-12T00:35:40.081Z,19.51
2018-05-12T00:36:40.003Z,19.54
2018-05-12T00:37:40.328Z,19.50
2018-05-12T00:38:40.337Z,19.44
2018-05-12T00:39:40.725Z,19.46
2018-05-12T00:40:40.648Z,19.56
2018-05-12T00:41:40.942Z,19.46
2018-05-12T00:42:40.988Z,19.54
2018-05-12T00:43:41.368Z,19.46
2018-05-12T00:44:41.287Z,19.44
2018-05-12T00:45:41.590Z,19.40
2018-05-12T00:46:41.638Z,19.36
2018-05-12T00:47:41.910Z,19.41
2018-05-12T00:48:41.967Z,19.40
2018-05-12T00:49:42.234Z,19.29
2018-05-12T00:50:42.280Z,19.39
2018-05-12T00:51:42.660Z,19.33
2018-05-12T00:52:42.579Z,19.44
2018-05-12T00:53:42.873Z,19.44
2018-05-12T00:54:42.921Z,19.47
2018-05-12T00:55:43.301Z,19.36
2018-05-12T00:56:43.222Z,19.31
2018-05-12T00:57:43.415Z,19.39
2018-05-12T00:58:43.590Z,19.31
2018-05-12T00:59:43.842Z,19.26
2018-05-12T01:00:43.888Z,19.19
2018-05-12T01:01:44.172Z,19.18
2018-05-12T01:02:44.208Z,19.18
2018-05-12T01:03:44.495Z,19.19
2018-05-12T01:04:44.537Z,19.21
2018-05-12T01:05:44.812Z,19.14
2018-05-12T01:06:44.851Z,19.31
2018-05-12T01:07:45.233Z,19.21
2018-05-12T01:08:45.619Z,19.32
2018-05-12T01:09:45.455Z,19.31
2018-05-12T01:10:45.589Z,19.41
2018-05-12T01:11:45.883Z,19.40
2018-05-12T01:12:45.806Z,19.46
2018-05-12T01:13:45.998Z,19.55
2018-05-12T01:14:46.168Z,19.48
2018-05-12T01:15:46.529Z,19.43
2018-05-12T01:16:46.464Z,19.32
2018-05-12T01:17:46.745Z,19.32
2018-05-12T01:18:46.789Z,19.32
2018-05-12T01:19:47.070Z,19.36
2018-05-12T01:20:47.385Z,19.33
2018-05-12T01:21:47.392Z,19.47
2018-05-12T01:22:47.433Z,19.46
2018-05-12T01:23:47.812Z,19.41
2018-05-12T01:24:47.727Z,19.31
2018-05-12T01:25:48.031Z,19.31
2018-05-12T01:26:48.078Z,19.37
2018-05-12T01:27:48.455Z,19.48
2018-05-12T01:28:48.377Z,19.56
2018-05-12T01:29:48.675Z,19.50
2018-05-12T01:30:48.718Z,19.47
2018-05-12T01:31:48.998Z,19.48
2018-05-12T01:32:49.463Z,19.43
2018-05-12T01:33:49.667Z,19.43
2018-05-12T01:34:49.380Z,19.46
2018-05-12T01:35:49.839Z,19.41
2018-05-12T01:36:49.776Z,19.44
2018-05-12T01:37:50.166Z,19.39
2018-05-12T01:38:50.102Z,19.39
2018-05-12T01:39:50.590Z,19.43
2018-05-12T01:40:50.399Z,19.33
2018-05-12T01:41:50.604Z,19.26
2018-05-12T01:42:50.782Z,19.32
2018-05-12T01:43:52.055Z,19.33
2018-05-12T01:44:51.094Z,19.33
2018-05-12T01:45:51.352Z,19.31
2018-05-12T01:46:51.402Z,19.37
2018-05-12T01:47:51.673Z,19.43
2018-05-12T01:48:51.725Z,19.39
2018-05-12T01:49:52.098Z,19.46
2018-05-12T01:50:52.023Z,19.55
2018-05-12T01:51:52.316Z,19.48
2018-05-12T01:52:53.005Z,19.56
2018-05-12T01:53:52.744Z,19.50
2018-05-12T01:54:52.676Z,19.48
2018-05-12T01:55:53.525Z,19.48
2018-05-12T01:56:53.200Z,19.46
2018-05-12T01:57:53.584Z,19.40
2018-05-12T01:58:53.387Z,19.43
2018-05-12T01:59:53.812Z,19.44
2018-05-12T02:00:54.576Z,19.46
2018-05-12T02:01:54.034Z,19.54
2018-05-12T02:02:54.992Z,19.44
2018-05-12T02:03:54.287Z,19.50
2018-05-12T02:04:54.464Z,19.47
2018-05-12T02:05:54.880Z,19.36
2018-05-12T02:06:54.824Z,19.40
2018-05-12T02:07:55.991Z,19.31
2018-05-12T02:08:55.998Z,19.29
2018-05-12T02:09:55.526Z,19.32
2018-05-12T02:10:55.439Z,19.21
2018-05-12T02:11:55.624Z,19.11
2018-05-12T02:12:55.988Z,19.19
2018-05-12T02:13:55.908Z,19.21
2018-05-12T02:14:57.002Z,19.16
2018-05-12T02:15:56.226Z,19.19
2018-05-12T02:16:56.612Z,19.16
2018-05-12T02:17:57.499Z,19.19
2018-05-12T02:18:56.748Z,19.22
2018-05-12T02:19:56.799Z,19.19
2018-05-12T02:20:57.382Z,19.28
2018-05-12T02:21:57.452Z,19.29
2018-05-12T02:22:57.468Z,19.31
2018-05-12T02:23:57.533Z,19.32
2018-05-12T02:24:57.893Z,19.36
2018-05-12T02:25:57.820Z,19.31
2018-05-12T02:26:58.109Z,19.29
2018-05-12T02:27:58.160Z,19.29
2018-05-12T02:28:58.534Z,19.28
2018-05-12T02:29:58.444Z,19.33
2018-05-12T02:30:58.755Z,19.39
2018-05-12T02:31:58.802Z,19.37
2018-05-12T02:32:59.181Z,19.29
2018-05-12T02:33:59.102Z,19.33
2018-05-12T02:34:59.399Z,19.28
2018-05-12T02:35:59.445Z,19.28
2018-05-12T02:36:59.831Z,19.19
2018-05-12T02:37:59.737Z,19.19
2018-05-12T02:39:00.051Z,19.14
2018-05-12T02:40:00.091Z,19.14
2018-05-12T02:41:00.470Z,19.18
2018-05-12T02:42:00.388Z,19.21
2018-05-12T02:43:00.690Z,19.23
2018-05-12T02:44:00.752Z,19.18
2018-05-12T02:45:02.123Z,19.14
2018-05-12T02:46:01.040Z,19.07
2018-05-12T02:47:01.337Z,19.10
2018-05-12T02:48:02.517Z,19.08
2018-05-12T02:49:01.754Z,19.07
2018-05-12T02:50:01.808Z,18.87
2018-05-12T02:51:02.184Z,18.88
2018-05-12T02:52:02.103Z,18.75
2018-05-12T02:53:02.402Z,18.80
2018-05-12T02:54:02.447Z,18.73
2018-05-12T02:55:02.812Z,18.72
2018-05-12T02:56:03.511Z,18.72
2018-05-12T02:57:03.253Z,18.70
2018-05-12T02:58:03.311Z,18.72
2018-05-12T02:59:03.468Z,18.73
2018-05-12T03:00:03.531Z,18.50
2018-05-12T03:01:03.698Z,18.50
2018-05-12T03:02:04.111Z,18.42
2018-05-12T03:03:04.030Z,18.48
2018-05-12T03:04:04.334Z,18.51
2018-05-12T03:05:04.384Z,18.50
2018-05-12T03:06:09.257Z,18.37
2018-05-12T03:07:04.726Z,18.45
2018-05-12T03:08:07.021Z,18.45
2018-05-12T03:09:05.058Z,18.37
2018-05-12T03:10:05.398Z,18.35
2018-05-12T03:11:05.452Z,18.29
2018-05-12T03:12:05.820Z,18.29
2018-05-12T03:13:05.743Z,18.21
2018-05-12T03:14:05.921Z,18.20
2018-05-12T03:15:06.095Z,18.18
2018-05-12T03:16:06.466Z,18.20
2018-05-12T03:17:06.387Z,18.08
2018-05-12T03:18:06.888Z,18.17
2018-05-12T03:19:06.685Z,18.11
2018-05-12T03:20:07.111Z,18.08
2018-05-12T03:21:07.029Z,17.99
2018-05-12T03:22:07.639Z,17.89
2018-05-12T03:23:08.013Z,17.86
2018-05-12T03:24:07.749Z,17.81
2018-05-12T03:25:07.670Z,17.78
2018-05-12T03:26:07.970Z,17.75
2018-05-12T03:27:08.249Z,17.68
2018-05-12T03:28:08.400Z,17.66
2018-05-12T03:29:08.714Z,17.70
2018-05-12T03:30:08.721Z,17.71
2018-05-12T03:31:08.640Z,17.79
2018-05-12T03:32:08.947Z,17.72
2018-05-12T03:33:09.516Z,17.68
2018-05-12T03:34:09.833Z,17.59
2018-05-12T03:35:09.298Z,17.54
2018-05-12T03:36:09.584Z,17.55
2018-05-12T03:37:09.633Z,17.46
2018-05-12T03:38:10.008Z,17.41
2018-05-12T03:39:09.927Z,17.48
2018-05-12T03:40:10.228Z,17.40
2018-05-12T03:41:10.278Z,17.46
2018-05-12T03:42:10.655Z,17.48
2018-05-12T03:43:10.575Z,17.52
2018-05-12T03:44:10.748Z,17.59
2018-05-12T03:45:11.086Z,17.51
2018-05-12T03:46:11.127Z,17.58
2018-05-12T03:47:11.509Z,17.58
2018-05-12T03:48:11.428Z,17.51
2018-05-12T03:49:11.724Z,17.54
2018-05-12T03:50:11.782Z,17.51
2018-05-12T03:51:12.155Z,17.58
2018-05-12T03:52:12.072Z,17.58
2018-05-12T03:53:12.372Z,17.58
2018-05-12T03:54:12.420Z,17.55
2018-05-12T03:55:12.800Z,17.54
2018-05-12T03:56:12.714Z,17.44
2018-05-12T03:57:13.013Z,17.51
2018-05-12T03:58:13.074Z,17.62
2018-05-12T03:59:13.441Z,17.56
2018-05-12T04:00:13.374Z,17.56
2018-05-12T04:01:13.731Z,17.63
2018-05-12T04:02:13.705Z,17.52
2018-05-12T04:03:14.086Z,17.55
2018-05-12T04:04:14.012Z,17.41
2018-05-12T04:05:14.307Z,17.51
2018-05-12T04:06:14.350Z,17.48
2018-05-12T04:07:14.731Z,17.38
2018-05-12T04:08:14.648Z,17.40
2018-05-12T04:09:14.946Z,17.43
2018-05-12T04:10:14.999Z,17.40
2018-05-12T04:11:15.377Z,17.34
2018-05-12T04:12:15.290Z,17.40
2018-05-12T04:13:15.470Z,17.25
2018-05-12T04:14:15.808Z,17.30
2018-05-12T04:15:15.849Z,17.31
2018-05-12T04:16:16.231Z,17.28
2018-05-12T04:17:16.155Z,17.25
2018-05-12T04:18:16.447Z,17.21
2018-05-12T04:19:16.497Z,17.08
2018-05-12T04:20:16.875Z,17.08
2018-05-12T04:21:16.800Z,17.00
2018-05-12T04:22:17.095Z,17.07
2018-05-12T04:23:17.139Z,17.11
2018-05-12T04:24:17.519Z,17.11
2018-05-12T04:25:17.438Z,17.03
2018-05-12T04:26:17.737Z,17.11
2018-05-12T04:27:17.798Z,17.08
2018-05-12T04:28:18.237Z,17.28
2018-05-12T04:29:18.082Z,17.25
2018-05-12T04:30:18.387Z,17.23
2018-05-12T04:31:18.426Z,17.40
2018-05-12T04:32:18.807Z,17.43
2018-05-12T04:33:18.727Z,17.46
2018-05-12T04:34:19.026Z,17.46
2018-05-12T04:35:19.075Z,17.48
2018-05-12T04:36:19.449Z,17.48
2018-05-12T04:37:19.367Z,17.58
2018-05-12T04:38:19.549Z,17.44
2018-05-12T04:39:19.882Z,17.49
2018-05-12T04:40:19.929Z,17.49
2018-05-12T04:41:20.322Z,17.54
2018-05-12T04:42:20.234Z,17.62
2018-05-12T04:43:20.573Z,17.48
2018-05-12T04:44:20.568Z,17.41
2018-05-12T04:45:20.951Z,17.43
2018-05-12T04:46:20.867Z,17.38
2018-05-12T04:47:21.171Z,17.41
2018-05-12T04:48:21.218Z,17.58
2018-05-12T04:49:21.596Z,17.52
2018-05-12T04:50:21.517Z,17.58
2018-05-12T04:51:21.815Z,17.59
2018-05-12T04:52:21.864Z,17.68
2018-05-12T04:53:22.237Z,17.74
2018-05-12T04:54:22.163Z,17.62
2018-05-12T04:55:22.336Z,17.62
2018-05-12T04:56:22.672Z,17.70
2018-05-12T04:57:22.719Z,17.72
2018-05-12T04:58:23.095Z,17.55
2018-05-12T04:59:23.020Z,17.55
2018-05-12T05:00:23.313Z,17.48
2018-05-12T05:01:23.362Z,17.41
2018-05-12T05:02:23.737Z,17.30
2018-05-12T05:03:23.659Z,17.30
2018-05-12T05:04:23.959Z,17.25
2018-05-12T05:05:24.013Z,17.21
2018-05-12T05:06:24.387Z,17.11
2018-05-12T05:07:24.313Z,17.11
2018-05-12T05:08:24.599Z,17.14
2018-05-12T05:09:24.649Z,17.22
2018-05-12T05:10:25.024Z,17.21
2018-05-12T05:11:24.950Z,17.15
2018-05-12T05:12:25.256Z,17.11
2018-05-12T05:13:25.299Z,17.08
2018-05-12T05:14:25.675Z,17.08
2018-05-12T05:15:25.592Z,17.26
2018-05-12T05:16:25.895Z,17.34
2018-05-12T05:17:25.945Z,17.41
2018-05-12T05:18:26.318Z,17.59
2018-05-12T05:19:26.240Z,17.43
2018-05-12T05:20:26.535Z,17.46
2018-05-12T05:21:26.582Z,17.49
2018-05-12T05:22:26.963Z,17.43
2018-05-12T05:23:26.884Z,17.46
2018-05-12T05:24:27.184Z,17.46
2018-05-12T05:25:27.227Z,17.34
2018-05-12T05:26:27.614Z,17.44
2018-05-12T05:27:27.523Z,17.48
2018-05-12T05:28:27.826Z,17.51
2018-05-12T05:29:27.875Z,17.58
2018-05-12T05:30:28.254Z,17.55
2018-05-12T05:31:28.174Z,17.52
2018-05-12T05:32:28.469Z,17.51
2018-05-12T05:33:28.523Z,17.49
2018-05-12T05:34:28.934Z,17.62
2018-05-12T05:35:28.818Z,17.55
2018-05-12T05:36:29.116Z,17.54
2018-05-12T05:37:29.162Z,17.58
2018-05-12T05:38:29.538Z,17.51
2018-05-12T05:39:29.464Z,17.56
2018-05-12T05:40:29.758Z,17.66
2018-05-12T05:41:29.803Z,17.66
2018-05-12T05:42:30.185Z,17.75
2018-05-12T05:43:30.109Z,17.75
2018-05-12T05:44:30.404Z,17.78
2018-05-12T05:45:30.452Z,17.79
2018-05-12T05:46:30.829Z,17.82
2018-05-12T05:47:30.758Z,17.90
2018-05-12T05:48:31.055Z,17.96
2018-05-12T05:49:31.104Z,17.99
2018-05-12T05:50:31.478Z,17.95
2018-05-12T05:51:31.398Z,18.08
2018-05-12T05:52:31.692Z,18.11
2018-05-12T05:53:31.740Z,18.08
2018-05-12T05:54:32.119Z,18.02
2018-05-12T05:55:32.050Z,18.14
2018-05-12T05:56:32.335Z,18.17
2018-05-12T05:57:32.387Z,18.20
2018-05-12T05:58:32.792Z,18.26
2018-05-12T05:59:32.688Z,18.39
2018-05-12T06:00:32.980Z,18.45
2018-05-12T06:01:33.033Z,18.48
2018-05-12T06:02:33.403Z,18.48
2018-05-12T06:03:33.326Z,18.54
2018-05-12T06:04:33.629Z,18.50
2018-05-12T06:05:33.673Z,18.69
2018-05-12T06:06:34.048Z,18.66
2018-05-12T06:07:33.968Z,18.65
2018-05-12T06:08:34.275Z,18.66
2018-05-12T06:09:34.325Z,18.81
2018-05-12T06:10:34.695Z,18.75
2018-05-12T06:11:34.620Z,18.91
2018-05-12T06:12:34.913Z,19.06
2018-05-12T06:13:34.972Z,19.14
2018-05-12T06:14:36.361Z,19.18
2018-05-12T06:15:35.285Z,19.19
2018-05-12T06:16:36.585Z,19.31
2018-05-12T06:17:35.629Z,19.40
2018-05-12T06:18:35.988Z,19.48
2018-05-12T06:19:35.900Z,19.44
2018-05-12T06:20:36.204Z,19.58
2018-05-12T06:21:36.247Z,19.62
2018-05-12T06:22:36.627Z,19.62
2018-05-12T06:23:36.543Z,19.58
2018-05-12T06:24:36.846Z,19.68
2018-05-12T06:25:36.913Z,19.81
2018-05-12T06:26:37.071Z,19.94
2018-05-12T06:27:38.506Z,19.91
2018-05-12T06:28:37.427Z,19.92
2018-05-12T06:29:37.910Z,19.92
2018-05-12T06:30:37.707Z,19.94
2018-05-12T06:31:38.126Z,19.86
2018-05-12T06:32:38.046Z,19.81
2018-05-12T06:33:38.400Z,19.86
2018-05-12T06:34:38.394Z,19.69
2018-05-12T06:35:38.773Z,19.76
2018-05-12T06:36:38.691Z,19.78
2018-05-12T06:37:39.098Z,19.80
2018-05-12T06:38:39.019Z,19.83
2018-05-12T06:39:39.317Z,19.84
2018-05-12T06:40:39.359Z,20.01
2018-05-12T06:41:39.731Z,20.05
2018-05-12T06:42:39.678Z,20.13
2018-05-12T06:43:39.960Z,20.23
2018-05-12T06:44:40.009Z,20.33
2018-05-12T06:45:40.398Z,20.52
2018-05-12T06:46:40.323Z,20.42
2018-05-12T06:47:40.606Z,20.62
2018-05-12T06:48:40.655Z,20.69
2018-05-12T06:49:41.030Z,20.70
2018-05-12T06:50:40.943Z,20.57
2018-05-12T06:51:41.244Z,20.58
2018-05-12T06:52:41.298Z,20.70
2018-05-12T06:53:41.673Z,20.72
2018-05-12T06:54:41.594Z,20.80
2018-05-12T06:55:41.892Z,21.03
2018-05-12T06:56:41.938Z,21.09
2018-05-12T06:57:42.319Z,20.97
2018-05-12T06:58:42.240Z,21.21
2018-05-12T06:59:42.531Z,21.24
2018-05-12T07:00:42.589Z,21.35
2018-05-12T07:01:42.893Z,21.35
2018-05-12T07:02:43.168Z,21.49
2018-05-12T07:03:43.092Z,21.50
2018-05-12T07:04:43.385Z,21.64
2018-05-12T07:05:43.439Z,21.67
2018-05-12T07:06:44.557Z,21.68
2018-05-12T07:07:43.753Z,21.80
2018-05-12T07:08:44.038Z,21.83
2018-05-12T07:09:45.556Z,21.98
2018-05-12T07:10:44.529Z,22.12
2018-05-12T07:11:44.417Z,22.09
2018-05-12T07:12:44.680Z,22.18
2018-05-12T07:13:44.729Z,22.37
2018-05-12T07:14:45.147Z,22.39
2018-05-12T07:15:45.035Z,22.27
2018-05-12T07:16:45.322Z,22.47
2018-05-12T07:17:45.544Z,22.52
2018-05-12T07:18:45.750Z,22.52
2018-05-12T07:19:45.800Z,22.61
2018-05-12T07:20:46.304Z,22.60
2018-05-12T07:21:46.134Z,22.68
2018-05-12T07:22:46.307Z,22.60
2018-05-12T07:23:47.567Z,22.62
2018-05-12T07:24:46.619Z,22.73
2018-05-12T07:25:47.040Z,22.85
2018-05-12T07:26:46.960Z,22.94
2018-05-12T07:27:47.257Z,22.85
2018-05-12T07:28:47.300Z,22.82
2018-05-12T07:29:47.543Z,22.92
2018-05-12T07:30:47.889Z,22.82
2018-05-12T07:31:47.836Z,22.86
2018-05-12T07:32:48.118Z,22.85
2018-05-12T07:33:48.242Z,22.98
2018-05-12T07:34:48.533Z,22.94
2018-05-12T07:35:49.590Z,22.88
2018-05-12T07:36:48.751Z,22.97
2018-05-12T07:37:48.894Z,23.09
2018-05-12T07:38:49.078Z,23.22
2018-05-12T07:39:50.072Z,23.36
2018-05-12T07:40:49.602Z,23.39
2018-05-12T07:41:49.523Z,23.36
2018-05-12T07:42:49.821Z,23.36
2018-05-12T07:43:49.868Z,23.40
2018-05-12T07:44:50.322Z,23.47
2018-05-12T07:45:50.256Z,23.36
2018-05-12T07:46:50.467Z,23.38
2018-05-12T07:47:50.679Z,23.39
2018-05-12T07:48:50.723Z,23.48
2018-05-12T07:49:51.080Z,23.48
2018-05-12T07:50:51.213Z,23.63
2018-05-12T07:51:51.263Z,23.61
2018-05-12T07:52:51.535Z,23.68
2018-05-12T07:53:51.593Z,23.47
2018-05-12T07:54:51.867Z,23.63
2018-05-12T07:55:52.570Z,23.63
2018-05-12T07:56:52.180Z,23.65
2018-05-12T07:57:52.316Z,23.70
2018-05-12T07:58:52.398Z,23.66
2018-05-12T07:59:52.784Z,23.60
2018-05-12T08:00:53.033Z,23.58
2018-05-12T08:01:52.953Z,23.57
2018-05-12T08:02:53.254Z,23.53
2018-05-12T08:03:53.292Z,23.70
2018-05-12T08:04:53.571Z,23.76
2018-05-12T08:05:53.627Z,23.91
2018-05-12T08:06:55.989Z,24.27
2018-05-12T08:07:54.022Z,24.42
2018-05-12T08:08:54.213Z,24.52
2018-05-12T08:09:54.387Z,24.52
2018-05-12T08:10:54.636Z,24.50
2018-05-12T08:11:54.694Z,24.52
2018-05-12T08:12:55.064Z,24.53
2018-05-12T08:13:55.021Z,24.34
2018-05-12T08:14:55.287Z,24.42
2018-05-12T08:15:55.366Z,24.45
2018-05-12T08:16:55.605Z,24.64
2018-05-12T08:17:55.657Z,24.83
2018-05-12T08:18:55.929Z,24.80
2018-05-12T08:19:55.980Z,24.80
2018-05-12T08:20:57.276Z,24.83
2018-05-12T08:21:56.322Z,24.78
2018-05-12T08:22:56.569Z,24.78
2018-05-12T08:23:56.617Z,24.88
2018-05-12T08:24:56.811Z,24.98
2018-05-12T08:25:56.986Z,25.14
2018-05-12T08:26:57.314Z,25.17
2018-05-12T08:27:57.388Z,25.23
2018-05-12T08:28:57.642Z,25.30
2018-05-12T08:29:57.691Z,25.51
2018-05-12T08:30:57.960Z,25.43
2018-05-12T08:31:58.094Z,25.52
2018-05-12T08:32:58.178Z,25.52
2018-05-12T08:33:58.362Z,25.58
2018-05-12T08:34:58.603Z,25.75
2018-05-12T08:35:58.654Z,25.72
2018-05-12T08:36:58.928Z,25.46
2018-05-12T08:37:58.990Z,25.47
2018-05-12T08:38:59.273Z,25.47
2018-05-12T08:39:59.317Z,25.54
2018-05-12T08:40:59.493Z,25.51
2018-05-12T08:41:59.818Z,25.76
2018-05-12T08:42:59.826Z,25.65
2018-05-12T08:44:00.121Z,25.94
2018-05-12T08:45:00.162Z,25.92
2018-05-12T08:46:00.430Z,26.05
2018-05-12T08:47:00.492Z,26.23
2018-05-12T08:48:00.752Z,26.44
2018-05-12T08:49:00.809Z,26.69
2018-05-12T08:50:01.078Z,26.54
2018-05-12T08:51:01.146Z,26.30
2018-05-12T08:52:01.393Z,26.47
2018-05-12T08:53:01.540Z,26.72
2018-05-12T08:54:01.822Z,26.95
2018-05-12T08:55:01.889Z,26.97
2018-05-12T08:56:02.145Z,27.00
2018-05-12T08:57:02.193Z,27.02
2018-05-12T08:58:02.668Z,27.36
2018-05-12T08:59:03.781Z,27.75
2018-05-12T09:00:02.874Z,28.04
2018-05-12T09:01:02.896Z,28.39
2018-05-12T09:02:03.110Z,28.89
2018-05-12T09:03:03.297Z,29.19
2018-05-12T09:04:03.553Z,30.19
2018-05-12T09:05:03.649Z,31.07
2018-05-12T09:06:03.961Z,31.62
2018-05-12T09:07:04.053Z,32.63
2018-05-12T09:08:04.391Z,33.88
2018-05-12T09:09:04.472Z,34.37
2018-05-12T09:10:04.734Z,35.09
2018-05-12T09:11:04.817Z,35.18
2018-05-12T09:12:05.132Z,35.59
2018-05-12T09:13:06.133Z,35.22
2018-05-12T09:14:06.083Z,35.74
2018-05-12T09:15:05.563Z,36.50
2018-05-12T09:16:06.589Z,37.00
2018-05-12T09:17:05.931Z,36.88
2018-05-12T09:18:07.095Z,36.32
2018-05-12T09:19:06.199Z,37.22
2018-05-12T09:20:06.420Z,37.81
2018-05-12T09:21:07.594Z,38.40
2018-05-12T09:22:06.804Z,38.68
2018-05-12T09:23:07.588Z,38.03
2018-05-12T09:24:08.092Z,37.66
2018-05-12T09:25:07.386Z,37.47
2018-05-12T09:26:07.556Z,37.21
2018-05-12T09:27:08.608Z,37.98
2018-05-12T09:28:24.233Z,37.96
2018-05-12T09:29:08.012Z,37.94
2018-05-12T09:30:08.183Z,37.89
2018-05-12T09:31:08.443Z,37.50
2018-05-12T09:32:08.507Z,38.32
2018-05-12T09:33:08.897Z,38.66
2018-05-12T09:34:08.867Z,39.43
2018-05-12T09:35:09.191Z,40.12
2018-05-12T09:36:09.259Z,38.22
2018-05-12T09:37:09.531Z,37.82
2018-05-12T09:38:09.589Z,39.03
2018-05-12T09:39:09.835Z,39.52
2018-05-12T09:40:10.025Z,39.40
2018-05-12T09:41:10.258Z,39.44
2018-05-12T09:42:10.448Z,38.28
2018-05-12T09:43:10.682Z,37.79
2018-05-12T09:44:10.889Z,38.83
2018-05-12T09:45:11.114Z,39.55
2018-05-12T09:46:11.297Z,40.34
2018-05-12T09:47:11.529Z,39.47
2018-05-12T09:48:11.717Z,39.23
2018-05-12T09:49:12.006Z,39.23
2018-05-12T09:50:12.047Z,39.62
2018-05-12T09:51:12.384Z,39.84
2018-05-12T09:52:12.444Z,39.91
2018-05-12T09:53:12.807Z,40.31
2018-05-12T09:54:12.870Z,40.62
2018-05-12T09:55:13.234Z,41.37
2018-05-12T09:56:13.298Z,41.93
2018-05-12T09:57:13.659Z,42.31
2018-05-12T09:58:14.667Z,42.06
2018-05-12T09:59:14.081Z,41.67
2018-05-12T10:00:14.027Z,41.74
2018-05-12T10:01:14.299Z,42.17
2018-05-12T10:02:14.423Z,42.35
2018-05-12T10:03:14.826Z,42.12
2018-05-12T10:04:14.778Z,41.13
2018-05-12T10:05:14.973Z,40.27
2018-05-12T10:06:15.363Z,39.85
2018-05-12T10:07:15.299Z,38.44
2018-05-12T10:08:16.615Z,38.35
2018-05-12T10:09:15.670Z,39.75
2018-05-12T10:10:15.907Z,40.00
2018-05-12T10:11:16.153Z,40.07
2018-05-12T10:12:17.454Z,40.64
2018-05-12T10:13:16.517Z,40.53
2018-05-12T10:14:16.912Z,39.41
2018-05-12T10:15:16.919Z,39.44
2018-05-12T10:16:19.830Z,38.81
2018-05-12T10:17:17.287Z,38.20
2018-05-12T10:18:17.603Z,38.84
2018-05-12T10:19:17.669Z,38.71
2018-05-12T10:20:17.930Z,38.42
2018-05-12T10:21:17.981Z,39.29
2018-05-12T10:22:18.245Z,39.28
2018-05-12T10:23:19.093Z,38.49
2018-05-12T10:24:18.474Z,38.20
2018-05-12T10:25:18.663Z,38.16
2018-05-12T10:26:19.006Z,37.96
2018-05-12T10:27:19.064Z,37.75
2018-05-12T10:28:19.382Z,37.57
2018-05-12T10:29:19.494Z,37.39
2018-05-12T10:30:19.745Z,37.40
2018-05-12T10:31:19.946Z,38.78
2018-05-12T10:32:20.167Z,38.95
2018-05-12T10:33:20.368Z,39.47
2018-05-12T10:34:20.600Z,40.03
2018-05-12T10:35:20.804Z,40.89
2018-05-12T10:36:21.016Z,41.48
2018-05-12T10:37:21.203Z,41.33
2018-05-12T10:38:21.441Z,42.05
2018-05-12T10:39:21.655Z,42.33
2018-05-12T10:40:21.867Z,42.73
2018-05-12T10:41:22.055Z,43.47
2018-05-12T10:42:22.288Z,43.45
2018-05-12T10:43:22.477Z,43.46
2018-05-12T10:44:22.818Z,42.39
2018-05-12T10:45:22.955Z,42.76
2018-05-12T10:46:23.137Z,43.49
2018-05-12T10:47:23.339Z,44.26
2018-05-12T10:48:23.563Z,44.68
2018-05-12T10:49:23.758Z,43.38
2018-05-12T10:50:23.986Z,43.42
2018-05-12T10:51:24.183Z,43.40
2018-05-12T10:52:24.414Z,41.80
2018-05-12T10:53:24.605Z,42.83
2018-05-12T10:54:25.593Z,43.38
2018-05-12T10:55:24.973Z,42.92
2018-05-12T10:56:25.262Z,43.02
2018-05-12T10:57:25.335Z,43.38
2018-05-12T10:58:25.581Z,43.71
2018-05-12T10:59:25.783Z,44.36
2018-05-12T11:00:26.214Z,43.79
2018-05-12T11:01:26.161Z,44.40
2018-05-12T11:02:26.432Z,44.94
2018-05-12T11:03:26.498Z,43.45
2018-05-12T11:04:26.858Z,41.70
2018-05-12T11:05:26.932Z,41.25
2018-05-12T11:06:27.183Z,42.52
2018-05-12T11:07:27.380Z,43.38
2018-05-12T11:08:27.607Z,44.16
2018-05-12T11:09:27.797Z,44.39
2018-05-12T11:10:28.025Z,44.00
2018-05-12T11:11:28.219Z,43.50
2018-05-12T11:12:28.453Z,42.76
2018-05-12T11:13:28.654Z,41.90
2018-05-12T11:14:28.852Z,42.28
2018-05-12T11:15:29.090Z,42.46
2018-05-12T11:16:29.283Z,41.69
2018-05-12T11:17:29.515Z,41.64
2018-05-12T11:18:29.707Z,42.57
2018-05-12T11:19:29.978Z,42.86
2018-05-12T11:20:30.152Z,41.66
2018-05-12T11:21:30.469Z,43.00
2018-05-12T11:22:30.534Z,43.84
2018-05-12T11:23:30.789Z,44.22
2018-05-12T11:24:30.976Z,44.76
2018-05-12T11:25:31.211Z,44.51
2018-05-12T11:26:31.480Z,41.94
2018-05-12T11:27:31.634Z,42.23
2018-05-12T11:28:31.836Z,42.17
2018-05-12T11:29:32.063Z,42.31
2018-05-12T11:30:32.258Z,41.06
2018-05-12T11:31:32.488Z,41.76
2018-05-12T11:32:33.741Z,41.13
2018-05-12T11:33:32.912Z,40.32
2018-05-12T11:34:33.151Z,39.62
2018-05-12T11:35:33.432Z,40.29
2018-05-12T11:36:33.510Z,40.69
2018-05-12T11:37:33.759Z,40.92
2018-05-12T11:38:34.621Z,41.49
2018-05-12T11:39:34.290Z,41.84
2018-05-12T11:40:34.360Z,41.73
2018-05-12T11:41:34.604Z,41.94
2018-05-12T11:42:34.799Z,42.20
2018-05-12T11:43:35.036Z,42.58
2018-05-12T11:44:35.289Z,42.46
2018-05-12T11:45:35.457Z,41.83
2018-05-12T11:46:35.674Z,42.02
2018-05-12T11:47:35.888Z,42.47
2018-05-12T11:49:30.212Z,42.25
2018-05-12T11:50:30.418Z,42.78
2018-05-12T11:51:30.771Z,43.59
2018-05-12T11:52:31.433Z,44.00
2018-05-12T11:53:30.980Z,42.20
2018-05-12T11:54:31.126Z,40.39
2018-05-12T11:55:31.327Z,40.65
2018-05-12T11:56:31.526Z,39.62
2018-05-12T11:57:31.719Z,40.27
2018-05-12T11:58:31.913Z,41.23
2018-05-12T11:59:32.229Z,40.31
2018-05-12T12:00:32.301Z,40.70
2018-05-12T12:01:32.503Z,41.20
2018-05-12T12:02:32.705Z,41.89
2018-05-12T12:03:32.896Z,40.92
2018-05-12T12:04:33.085Z,41.17
2018-05-12T12:05:33.292Z,39.70
2018-05-12T12:06:33.501Z,37.40
2018-05-12T12:07:33.689Z,36.94
2018-05-12T12:08:33.881Z,38.68
2018-05-12T12:09:34.074Z,39.47
2018-05-12T12:10:34.264Z,40.72
2018-05-12T12:11:34.459Z,42.05
2018-05-12T12:12:34.645Z,43.15
2018-05-12T12:13:34.848Z,43.07
2018-05-12T12:14:35.034Z,43.33
2018-05-12T12:15:35.225Z,41.94
2018-05-12T12:16:35.468Z,41.54
2018-05-12T12:17:35.612Z,41.41
2018-05-12T12:18:35.808Z,41.37
2018-05-12T12:19:35.999Z,40.19
2018-05-12T12:20:36.192Z,39.72
2018-05-12T12:21:36.387Z,39.01
2018-05-12T12:22:36.575Z,38.22
2018-05-12T12:23:36.760Z,37.98
2018-05-12T12:24:36.960Z,38.22
2018-05-12T12:25:37.152Z,39.67
2018-05-12T12:26:37.341Z,40.88
2018-05-12T12:27:37.525Z,41.73
2018-05-12T12:28:37.722Z,42.39
2018-05-12T12:29:37.914Z,42.80
2018-05-12T12:30:38.105Z,43.30
2018-05-12T12:31:38.300Z,42.35
2018-05-12T12:32:38.556Z,43.28
2018-05-12T12:33:38.687Z,42.70
2018-05-12T12:34:38.879Z,41.67
2018-05-12T12:35:39.083Z,42.50
2018-05-12T12:36:39.275Z,41.90
2018-05-12T12:37:39.474Z,40.82
2018-05-12T12:38:39.648Z,40.10
2018-05-12T12:39:39.866Z,39.70
2018-05-12T12:40:40.052Z,39.28
2018-05-12T12:41:40.242Z,38.74
2018-05-12T12:42:40.437Z,38.15
2018-05-12T12:43:40.642Z,37.64
2018-05-12T12:44:40.829Z,37.09
2018-05-12T12:45:41.029Z,36.50
2018-05-12T12:46:41.214Z,36.17
2018-05-12T12:47:41.403Z,35.72
2018-05-12T12:48:41.597Z,35.18
2018-05-12T12:49:41.780Z,34.91
2018-05-12T12:50:41.968Z,34.53
2018-05-12T12:51:42.173Z,34.40
2018-05-12T12:52:42.350Z,33.71
2018-05-12T12:53:42.543Z,32.75
2018-05-12T12:54:42.729Z,32.56
2018-05-12T12:55:42.911Z,32.87